sensor_id;sensor_type;location;lat;lon;timestamp;P1;durP1;ratioP1;P2;durP2;ratioP2
51358;SDS011;37448;51.588;7.248;2022-07-23T00:02:23;12.13;;;5.72;;
51358;SDS011;37448;51.588;7.248;2022-07-23T00:04:53;15.57;;;5.93;;
51358;SDS011;37448;51.588;7.248;2022-07-23T00:07:24;15.07;;;6.70;;
51358;SDS011;37448;51.588;7.248;2022-07-23T00:09:54;13.38;;;6.45;;
51358;SDS011;37448;51.588;7.248;2022-07-23T00:12:25;13.52;;;5.97;;
51358;SDS011;37448;51.588;7.248;2022-07-23T00:14:56;11.57;;;6.25;;
51358;SDS011;37448;51.588;7.248;2022-07-23T00:17:26;12.45;;;5.97;;
51358;SDS011;37448;51.588;7.248;2022-07-23T00:19:56;12.07;;;6.38;;
51358;SDS011;37448;51.588;7.248;2022-07-23T00:22:27;12.48;;;5.95;;
51358;SDS011;37448;51.588;7.248;2022-07-23T00:24:59;14.05;;;7.15;;
51358;SDS011;37448;51.588;7.248;2022-07-23T00:27:29;19.67;;;7.80;;
51358;SDS011;37448;51.588;7.248;2022-07-23T00:29:59;9.80;;;6.45;;
51358;SDS011;37448;51.588;7.248;2022-07-23T00:32:30;10.35;;;6.57;;
51358;SDS011;37448;51.588;7.248;2022-07-23T00:35:00;9.30;;;6.05;;
51358;SDS011;37448;51.588;7.248;2022-07-23T00:37:30;10.93;;;6.07;;
51358;SDS011;37448;51.588;7.248;2022-07-23T00:40:01;11.63;;;6.10;;
51358;SDS011;37448;51.588;7.248;2022-07-23T00:42:31;11.13;;;6.13;;
51358;SDS011;37448;51.588;7.248;2022-07-23T00:45:03;11.57;;;7.10;;
51358;SDS011;37448;51.588;7.248;2022-07-23T00:47:33;14.05;;;7.25;;
51358;SDS011;37448;51.588;7.248;2022-07-23T00:50:05;14.25;;;6.47;;
51358;SDS011;37448;51.588;7.248;2022-07-23T00:52:37;10.85;;;6.18;;
51358;SDS011;37448;51.588;7.248;2022-07-23T00:55:09;11.65;;;6.60;;
51358;SDS011;37448;51.588;7.248;2022-07-23T00:57:41;14.65;;;6.75;;
51358;SDS011;37448;51.588;7.248;2022-07-23T01:00:13;11.53;;;6.37;;
51358;SDS011;37448;51.588;7.248;2022-07-23T01:02:44;12.18;;;7.47;;
51358;SDS011;37448;51.588;7.248;2022-07-23T01:05:15;13.23;;;6.90;;
51358;SDS011;37448;51.588;7.248;2022-07-23T01:07:50;15.10;;;7.32;;
51358;SDS011;37448;51.588;7.248;2022-07-23T01:10:21;13.38;;;7.25;;
51358;SDS011;37448;51.588;7.248;2022-07-23T01:15:38;11.98;;;6.60;;
51358;SDS011;37448;51.588;7.248;2022-07-23T01:18:09;11.77;;;6.68;;
51358;SDS011;37448;51.588;7.248;2022-07-23T01:20:39;12.45;;;6.85;;
51358;SDS011;37448;51.588;7.248;2022-07-23T01:23:10;10.38;;;7.13;;
51358;SDS011;37448;51.588;7.248;2022-07-23T01:25:53;11.75;;;6.88;;
51358;SDS011;37448;51.588;7.248;2022-07-23T01:28:24;11.68;;;7.07;;
51358;SDS011;37448;51.588;7.248;2022-07-23T01:30:54;12.65;;;6.95;;
51358;SDS011;37448;51.588;7.248;2022-07-23T01:33:25;12.68;;;6.88;;
51358;SDS011;37448;51.588;7.248;2022-07-23T01:35:55;13.77;;;7.40;;
51358;SDS011;37448;51.588;7.248;2022-07-23T01:38:25;14.00;;;7.93;;
51358;SDS011;37448;51.588;7.248;2022-07-23T01:40:56;12.95;;;7.47;;
51358;SDS011;37448;51.588;7.248;2022-07-23T01:43:26;12.90;;;7.53;;
51358;SDS011;37448;51.588;7.248;2022-07-23T01:45:57;13.93;;;7.78;;
51358;SDS011;37448;51.588;7.248;2022-07-23T01:48:27;11.38;;;7.20;;
51358;SDS011;37448;51.588;7.248;2022-07-23T01:50:57;14.88;;;7.63;;
51358;SDS011;37448;51.588;7.248;2022-07-23T01:53:28;16.45;;;8.85;;
51358;SDS011;37448;51.588;7.248;2022-07-23T01:56:01;15.88;;;8.52;;
51358;SDS011;37448;51.588;7.248;2022-07-23T01:58:31;14.95;;;7.15;;
51358;SDS011;37448;51.588;7.248;2022-07-23T02:01:02;11.75;;;7.30;;
51358;SDS011;37448;51.588;7.248;2022-07-23T02:03:32;15.27;;;8.32;;
51358;SDS011;37448;51.588;7.248;2022-07-23T02:06:03;18.23;;;8.38;;
51358;SDS011;37448;51.588;7.248;2022-07-23T02:08:33;15.38;;;7.75;;
51358;SDS011;37448;51.588;7.248;2022-07-23T02:11:03;15.15;;;8.55;;
51358;SDS011;37448;51.588;7.248;2022-07-23T02:13:34;15.35;;;8.23;;
51358;SDS011;37448;51.588;7.248;2022-07-23T02:16:04;13.23;;;7.80;;
51358;SDS011;37448;51.588;7.248;2022-07-23T02:18:35;13.48;;;7.80;;
51358;SDS011;37448;51.588;7.248;2022-07-23T02:21:05;15.65;;;8.15;;
51358;SDS011;37448;51.588;7.248;2022-07-23T02:23:36;13.88;;;8.30;;
51358;SDS011;37448;51.588;7.248;2022-07-23T02:26:06;17.60;;;8.32;;
51358;SDS011;37448;51.588;7.248;2022-07-23T02:28:36;16.10;;;9.32;;
51358;SDS011;37448;51.588;7.248;2022-07-23T02:31:07;15.52;;;8.82;;
51358;SDS011;37448;51.588;7.248;2022-07-23T02:33:37;19.77;;;9.02;;
51358;SDS011;37448;51.588;7.248;2022-07-23T02:36:08;14.60;;;9.10;;
51358;SDS011;37448;51.588;7.248;2022-07-23T02:38:38;19.38;;;9.65;;
51358;SDS011;37448;51.588;7.248;2022-07-23T02:41:09;15.50;;;9.45;;
51358;SDS011;37448;51.588;7.248;2022-07-23T02:43:39;15.82;;;9.15;;
51358;SDS011;37448;51.588;7.248;2022-07-23T02:46:10;16.75;;;9.20;;
51358;SDS011;37448;51.588;7.248;2022-07-23T02:48:40;17.23;;;9.30;;
51358;SDS011;37448;51.588;7.248;2022-07-23T02:51:10;17.75;;;9.85;;
51358;SDS011;37448;51.588;7.248;2022-07-23T02:53:41;18.08;;;9.52;;
51358;SDS011;37448;51.588;7.248;2022-07-23T02:56:11;18.92;;;9.40;;
51358;SDS011;37448;51.588;7.248;2022-07-23T02:58:42;18.00;;;10.27;;
51358;SDS011;37448;51.588;7.248;2022-07-23T03:01:12;18.17;;;9.90;;
51358;SDS011;37448;51.588;7.248;2022-07-23T03:03:42;15.68;;;9.50;;
51358;SDS011;37448;51.588;7.248;2022-07-23T03:06:13;17.00;;;10.05;;
51358;SDS011;37448;51.588;7.248;2022-07-23T03:08:43;18.10;;;10.57;;
51358;SDS011;37448;51.588;7.248;2022-07-23T03:11:14;16.52;;;10.50;;
51358;SDS011;37448;51.588;7.248;2022-07-23T03:13:44;18.02;;;11.00;;
51358;SDS011;37448;51.588;7.248;2022-07-23T03:16:14;22.00;;;11.18;;
51358;SDS011;37448;51.588;7.248;2022-07-23T03:18:45;18.15;;;10.80;;
51358;SDS011;37448;51.588;7.248;2022-07-23T03:21:15;17.05;;;10.55;;
51358;SDS011;37448;51.588;7.248;2022-07-23T03:23:47;17.52;;;10.73;;
51358;SDS011;37448;51.588;7.248;2022-07-23T03:26:17;16.35;;;9.93;;
51358;SDS011;37448;51.588;7.248;2022-07-23T03:28:47;17.73;;;10.05;;
51358;SDS011;37448;51.588;7.248;2022-07-23T03:31:18;14.25;;;9.27;;
51358;SDS011;37448;51.588;7.248;2022-07-23T03:33:48;17.52;;;10.43;;
51358;SDS011;37448;51.588;7.248;2022-07-23T03:36:19;14.80;;;9.07;;
51358;SDS011;37448;51.588;7.248;2022-07-23T03:38:49;15.73;;;10.15;;
51358;SDS011;37448;51.588;7.248;2022-07-23T03:41:20;14.32;;;9.85;;
51358;SDS011;37448;51.588;7.248;2022-07-23T03:43:51;16.58;;;10.48;;
51358;SDS011;37448;51.588;7.248;2022-07-23T03:46:21;17.05;;;10.00;;
51358;SDS011;37448;51.588;7.248;2022-07-23T03:48:51;17.95;;;10.05;;
51358;SDS011;37448;51.588;7.248;2022-07-23T03:51:22;15.45;;;9.73;;
51358;SDS011;37448;51.588;7.248;2022-07-23T03:53:52;15.68;;;10.25;;
51358;SDS011;37448;51.588;7.248;2022-07-23T03:56:24;17.77;;;10.77;;
51358;SDS011;37448;51.588;7.248;2022-07-23T03:58:56;18.75;;;10.57;;
51358;SDS011;37448;51.588;7.248;2022-07-23T04:01:26;19.42;;;10.57;;
51358;SDS011;37448;51.588;7.248;2022-07-23T04:03:56;17.05;;;11.45;;
51358;SDS011;37448;51.588;7.248;2022-07-23T04:06:27;20.92;;;11.77;;
51358;SDS011;37448;51.588;7.248;2022-07-23T04:08:57;19.75;;;11.75;;
51358;SDS011;37448;51.588;7.248;2022-07-23T04:11:28;21.65;;;11.68;;
51358;SDS011;37448;51.588;7.248;2022-07-23T04:13:58;23.10;;;11.43;;
51358;SDS011;37448;51.588;7.248;2022-07-23T04:16:29;18.77;;;11.38;;
51358;SDS011;37448;51.588;7.248;2022-07-23T04:19:01;18.45;;;11.70;;
51358;SDS011;37448;51.588;7.248;2022-07-23T04:21:31;18.13;;;11.60;;
51358;SDS011;37448;51.588;7.248;2022-07-23T04:24:02;17.85;;;11.20;;
51358;SDS011;37448;51.588;7.248;2022-07-23T04:26:32;24.05;;;11.50;;
51358;SDS011;37448;51.588;7.248;2022-07-23T04:29:02;20.75;;;11.52;;
51358;SDS011;37448;51.588;7.248;2022-07-23T04:31:33;20.50;;;11.52;;
51358;SDS011;37448;51.588;7.248;2022-07-23T04:34:03;20.65;;;12.45;;
51358;SDS011;37448;51.588;7.248;2022-07-23T04:36:34;20.30;;;12.07;;
51358;SDS011;37448;51.588;7.248;2022-07-23T04:39:04;19.42;;;11.52;;
51358;SDS011;37448;51.588;7.248;2022-07-23T04:41:34;19.02;;;11.43;;
51358;SDS011;37448;51.588;7.248;2022-07-23T04:44:05;19.05;;;12.00;;
51358;SDS011;37448;51.588;7.248;2022-07-23T04:46:35;20.13;;;10.90;;
51358;SDS011;37448;51.588;7.248;2022-07-23T04:49:06;17.75;;;11.68;;
51358;SDS011;37448;51.588;7.248;2022-07-23T04:51:36;22.52;;;11.30;;
51358;SDS011;37448;51.588;7.248;2022-07-23T04:54:07;20.73;;;12.15;;
51358;SDS011;37448;51.588;7.248;2022-07-23T04:56:37;20.20;;;12.45;;
51358;SDS011;37448;51.588;7.248;2022-07-23T04:59:07;23.25;;;12.30;;
51358;SDS011;37448;51.588;7.248;2022-07-23T05:01:38;20.73;;;11.98;;
51358;SDS011;37448;51.588;7.248;2022-07-23T05:04:08;20.58;;;12.82;;
51358;SDS011;37448;51.588;7.248;2022-07-23T05:06:38;21.60;;;11.60;;
51358;SDS011;37448;51.588;7.248;2022-07-23T05:09:09;18.98;;;11.18;;
51358;SDS011;37448;51.588;7.248;2022-07-23T05:11:39;19.67;;;10.93;;
51358;SDS011;37448;51.588;7.248;2022-07-23T05:14:09;17.63;;;10.75;;
51358;SDS011;37448;51.588;7.248;2022-07-23T05:16:42;15.30;;;10.52;;
51358;SDS011;37448;51.588;7.248;2022-07-23T05:19:12;16.70;;;11.02;;
51358;SDS011;37448;51.588;7.248;2022-07-23T05:21:43;20.30;;;11.18;;
51358;SDS011;37448;51.588;7.248;2022-07-23T05:24:14;20.00;;;10.40;;
51358;SDS011;37448;51.588;7.248;2022-07-23T05:26:44;19.13;;;10.95;;
51358;SDS011;37448;51.588;7.248;2022-07-23T05:29:14;21.08;;;12.18;;
51358;SDS011;37448;51.588;7.248;2022-07-23T05:31:45;17.88;;;10.38;;
51358;SDS011;37448;51.588;7.248;2022-07-23T05:34:15;19.88;;;10.45;;
51358;SDS011;37448;51.588;7.248;2022-07-23T05:36:46;17.67;;;10.52;;
51358;SDS011;37448;51.588;7.248;2022-07-23T05:39:16;19.75;;;10.90;;
51358;SDS011;37448;51.588;7.248;2022-07-23T05:41:47;17.48;;;10.30;;
51358;SDS011;37448;51.588;7.248;2022-07-23T05:44:17;16.98;;;10.15;;
51358;SDS011;37448;51.588;7.248;2022-07-23T05:46:47;15.98;;;10.20;;
51358;SDS011;37448;51.588;7.248;2022-07-23T05:49:18;15.63;;;9.18;;
51358;SDS011;37448;51.588;7.248;2022-07-23T05:51:48;13.18;;;8.30;;
51358;SDS011;37448;51.588;7.248;2022-07-23T05:54:19;15.13;;;8.00;;
51358;SDS011;37448;51.588;7.248;2022-07-23T05:56:49;13.52;;;8.05;;
51358;SDS011;37448;51.588;7.248;2022-07-23T05:59:20;11.90;;;7.20;;
51358;SDS011;37448;51.588;7.248;2022-07-23T06:01:50;12.60;;;7.72;;
51358;SDS011;37448;51.588;7.248;2022-07-23T06:04:21;11.02;;;7.18;;
51358;SDS011;37448;51.588;7.248;2022-07-23T06:06:51;10.50;;;6.93;;
51358;SDS011;37448;51.588;7.248;2022-07-23T06:09:22;14.80;;;6.85;;
51358;SDS011;37448;51.588;7.248;2022-07-23T06:11:52;13.48;;;6.95;;
51358;SDS011;37448;51.588;7.248;2022-07-23T06:14:22;14.00;;;6.68;;
51358;SDS011;37448;51.588;7.248;2022-07-23T06:16:53;12.30;;;7.20;;
51358;SDS011;37448;51.588;7.248;2022-07-23T06:19:23;12.35;;;7.07;;
51358;SDS011;37448;51.588;7.248;2022-07-23T06:21:54;12.35;;;7.28;;
51358;SDS011;37448;51.588;7.248;2022-07-23T06:24:24;13.23;;;7.43;;
51358;SDS011;37448;51.588;7.248;2022-07-23T06:26:54;12.60;;;7.22;;
51358;SDS011;37448;51.588;7.248;2022-07-23T06:29:25;10.93;;;6.63;;
51358;SDS011;37448;51.588;7.248;2022-07-23T06:31:55;12.10;;;7.30;;
51358;SDS011;37448;51.588;7.248;2022-07-23T06:34:26;16.02;;;7.80;;
51358;SDS011;37448;51.588;7.248;2022-07-23T06:36:56;11.73;;;6.90;;
51358;SDS011;37448;51.588;7.248;2022-07-23T06:39:26;12.70;;;7.07;;
51358;SDS011;37448;51.588;7.248;2022-07-23T06:41:57;13.55;;;7.20;;
51358;SDS011;37448;51.588;7.248;2022-07-23T06:44:27;12.48;;;7.03;;
51358;SDS011;37448;51.588;7.248;2022-07-23T06:46:58;11.27;;;6.93;;
51358;SDS011;37448;51.588;7.248;2022-07-23T06:49:28;13.38;;;7.25;;
51358;SDS011;37448;51.588;7.248;2022-07-23T06:51:58;15.63;;;7.88;;
51358;SDS011;37448;51.588;7.248;2022-07-23T06:54:29;12.90;;;6.60;;
51358;SDS011;37448;51.588;7.248;2022-07-23T06:56:59;14.50;;;7.00;;
51358;SDS011;37448;51.588;7.248;2022-07-23T06:59:30;11.68;;;6.68;;
51358;SDS011;37448;51.588;7.248;2022-07-23T07:02:00;12.65;;;6.85;;
51358;SDS011;37448;51.588;7.248;2022-07-23T07:04:30;12.40;;;5.90;;
51358;SDS011;37448;51.588;7.248;2022-07-23T07:07:01;13.82;;;7.22;;
51358;SDS011;37448;51.588;7.248;2022-07-23T07:09:32;11.43;;;6.70;;
51358;SDS011;37448;51.588;7.248;2022-07-23T07:12:02;11.70;;;7.38;;
51358;SDS011;37448;51.588;7.248;2022-07-23T07:14:33;12.85;;;7.00;;
51358;SDS011;37448;51.588;7.248;2022-07-23T07:17:03;11.52;;;6.65;;
51358;SDS011;37448;51.588;7.248;2022-07-23T07:19:34;11.27;;;5.82;;
51358;SDS011;37448;51.588;7.248;2022-07-23T07:22:04;12.55;;;6.60;;
51358;SDS011;37448;51.588;7.248;2022-07-23T07:24:34;12.43;;;6.35;;
51358;SDS011;37448;51.588;7.248;2022-07-23T07:27:05;10.23;;;5.60;;
51358;SDS011;37448;51.588;7.248;2022-07-23T07:29:35;10.75;;;5.15;;
51358;SDS011;37448;51.588;7.248;2022-07-23T07:32:06;9.50;;;5.28;;
51358;SDS011;37448;51.588;7.248;2022-07-23T07:34:36;9.68;;;5.20;;
51358;SDS011;37448;51.588;7.248;2022-07-23T07:37:06;11.52;;;5.57;;
51358;SDS011;37448;51.588;7.248;2022-07-23T07:39:37;11.43;;;6.00;;
51358;SDS011;37448;51.588;7.248;2022-07-23T07:42:07;9.40;;;5.82;;
51358;SDS011;37448;51.588;7.248;2022-07-23T07:44:37;11.27;;;5.55;;
51358;SDS011;37448;51.588;7.248;2022-07-23T07:47:08;11.35;;;5.30;;
51358;SDS011;37448;51.588;7.248;2022-07-23T07:49:38;11.32;;;4.63;;
51358;SDS011;37448;51.588;7.248;2022-07-23T07:52:09;7.70;;;4.20;;
51358;SDS011;37448;51.588;7.248;2022-07-23T07:54:40;7.90;;;4.32;;
51358;SDS011;37448;51.588;7.248;2022-07-23T07:57:10;10.88;;;4.80;;
51358;SDS011;37448;51.588;7.248;2022-07-23T07:59:41;8.70;;;4.18;;
51358;SDS011;37448;51.588;7.248;2022-07-23T08:02:11;7.90;;;4.25;;
51358;SDS011;37448;51.588;7.248;2022-07-23T08:04:41;10.20;;;4.50;;
51358;SDS011;37448;51.588;7.248;2022-07-23T08:07:12;9.05;;;4.18;;
51358;SDS011;37448;51.588;7.248;2022-07-23T08:09:42;9.75;;;4.03;;
51358;SDS011;37448;51.588;7.248;2022-07-23T08:12:13;9.07;;;3.85;;
51358;SDS011;37448;51.588;7.248;2022-07-23T08:14:43;7.95;;;4.00;;
51358;SDS011;37448;51.588;7.248;2022-07-23T08:17:14;6.88;;;4.10;;
51358;SDS011;37448;51.588;7.248;2022-07-23T08:19:45;8.30;;;3.63;;
51358;SDS011;37448;51.588;7.248;2022-07-23T08:22:15;7.63;;;3.70;;
51358;SDS011;37448;51.588;7.248;2022-07-23T08:24:45;8.45;;;4.40;;
51358;SDS011;37448;51.588;7.248;2022-07-23T08:27:16;8.63;;;5.15;;
51358;SDS011;37448;51.588;7.248;2022-07-23T08:29:46;12.65;;;5.38;;
51358;SDS011;37448;51.588;7.248;2022-07-23T08:32:16;7.97;;;5.65;;
51358;SDS011;37448;51.588;7.248;2022-07-23T08:34:47;11.15;;;6.10;;
51358;SDS011;37448;51.588;7.248;2022-07-23T08:37:17;8.02;;;5.63;;
51358;SDS011;37448;51.588;7.248;2022-07-23T08:39:47;7.90;;;5.65;;
51358;SDS011;37448;51.588;7.248;2022-07-23T08:42:18;10.45;;;7.03;;
51358;SDS011;37448;51.588;7.248;2022-07-23T08:44:50;10.27;;;6.80;;
51358;SDS011;37448;51.588;7.248;2022-07-23T08:47:21;10.88;;;7.00;;
51358;SDS011;37448;51.588;7.248;2022-07-23T08:49:52;8.68;;;6.55;;
51358;SDS011;37448;51.588;7.248;2022-07-23T08:52:22;8.57;;;6.10;;
51358;SDS011;37448;51.588;7.248;2022-07-23T08:54:54;8.18;;;6.15;;
51358;SDS011;37448;51.588;7.248;2022-07-23T08:57:25;12.27;;;6.22;;
51358;SDS011;37448;51.588;7.248;2022-07-23T08:59:56;11.70;;;6.90;;
51358;SDS011;37448;51.588;7.248;2022-07-23T09:02:26;8.18;;;5.90;;
51358;SDS011;37448;51.588;7.248;2022-07-23T09:04:57;7.50;;;4.70;;
51358;SDS011;37448;51.588;7.248;2022-07-23T09:07:27;7.93;;;5.07;;
51358;SDS011;37448;51.588;7.248;2022-07-23T09:10:04;8.25;;;4.95;;
51358;SDS011;37448;51.588;7.248;2022-07-23T09:12:37;8.05;;;4.68;;
51358;SDS011;37448;51.588;7.248;2022-07-23T09:15:08;8.88;;;4.65;;
51358;SDS011;37448;51.588;7.248;2022-07-23T09:17:39;10.13;;;5.53;;
51358;SDS011;37448;51.588;7.248;2022-07-23T09:20:13;8.40;;;5.13;;
51358;SDS011;37448;51.588;7.248;2022-07-23T09:22:45;8.85;;;5.13;;
51358;SDS011;37448;51.588;7.248;2022-07-23T09:25:17;9.05;;;4.90;;
51358;SDS011;37448;51.588;7.248;2022-07-23T09:30:23;7.65;;;4.32;;
51358;SDS011;37448;51.588;7.248;2022-07-23T09:33:03;7.78;;;4.70;;
51358;SDS011;37448;51.588;7.248;2022-07-23T09:38:14;7.97;;;4.40;;
51358;SDS011;37448;51.588;7.248;2022-07-23T09:40:45;6.22;;;3.90;;
51358;SDS011;37448;51.588;7.248;2022-07-23T09:43:26;10.70;;;4.50;;
51358;SDS011;37448;51.588;7.248;2022-07-23T09:46:20;7.70;;;3.60;;
51358;SDS011;37448;51.588;7.248;2022-07-23T09:48:50;7.65;;;3.60;;
51358;SDS011;37448;51.588;7.248;2022-07-23T09:51:26;8.52;;;3.78;;
51358;SDS011;37448;51.588;7.248;2022-07-23T09:53:57;7.22;;;3.80;;
51358;SDS011;37448;51.588;7.248;2022-07-23T09:56:28;7.95;;;3.33;;
51358;SDS011;37448;51.588;7.248;2022-07-23T09:58:58;5.15;;;3.00;;
51358;SDS011;37448;51.588;7.248;2022-07-23T10:01:35;6.95;;;3.42;;
51358;SDS011;37448;51.588;7.248;2022-07-23T10:04:06;6.00;;;3.17;;
51358;SDS011;37448;51.588;7.248;2022-07-23T10:06:40;5.97;;;3.47;;
51358;SDS011;37448;51.588;7.248;2022-07-23T10:09:13;5.97;;;3.28;;
51358;SDS011;37448;51.588;7.248;2022-07-23T10:11:48;5.50;;;2.70;;
51358;SDS011;37448;51.588;7.248;2022-07-23T10:14:19;5.50;;;2.90;;
51358;SDS011;37448;51.588;7.248;2022-07-23T10:16:50;6.70;;;2.90;;
51358;SDS011;37448;51.588;7.248;2022-07-23T10:19:21;5.50;;;2.80;;
51358;SDS011;37448;51.588;7.248;2022-07-23T10:21:53;4.85;;;2.92;;
51358;SDS011;37448;51.588;7.248;2022-07-23T10:24:36;7.32;;;3.50;;
51358;SDS011;37448;51.588;7.248;2022-07-23T10:29:55;5.78;;;2.35;;
51358;SDS011;37448;51.588;7.248;2022-07-23T10:41:33;5.43;;;2.42;;
51358;SDS011;37448;51.588;7.248;2022-07-23T10:47:03;5.25;;;2.60;;
51358;SDS011;37448;51.588;7.248;2022-07-23T10:49:52;5.05;;;2.70;;
51358;SDS011;37448;51.588;7.248;2022-07-23T10:52:23;5.88;;;2.70;;
51358;SDS011;37448;51.588;7.248;2022-07-23T10:57:49;6.93;;;1.95;;
51358;SDS011;37448;51.588;7.248;2022-07-23T11:03:05;6.03;;;3.15;;
51358;SDS011;37448;51.588;7.248;2022-07-23T11:05:55;5.75;;;3.05;;
51358;SDS011;37448;51.588;7.248;2022-07-23T11:08:25;5.43;;;2.85;;
51358;SDS011;37448;51.588;7.248;2022-07-23T11:13:49;4.57;;;1.80;;
51358;SDS011;37448;51.588;7.248;2022-07-23T11:16:20;5.20;;;2.30;;
51358;SDS011;37448;51.588;7.248;2022-07-23T11:18:56;5.25;;;2.00;;
51358;SDS011;37448;51.588;7.248;2022-07-23T11:24:04;6.20;;;2.40;;
51358;SDS011;37448;51.588;7.248;2022-07-23T11:37:10;5.72;;;2.15;;
51358;SDS011;37448;51.588;7.248;2022-07-23T11:39:42;6.80;;;2.40;;
51358;SDS011;37448;51.588;7.248;2022-07-23T11:42:17;3.15;;;1.90;;
51358;SDS011;37448;51.588;7.248;2022-07-23T11:44:49;4.07;;;1.88;;
51358;SDS011;37448;51.588;7.248;2022-07-23T11:47:21;4.40;;;1.30;;
51358;SDS011;37448;51.588;7.248;2022-07-23T11:49:54;3.22;;;1.50;;
51358;SDS011;37448;51.588;7.248;2022-07-23T11:52:27;4.65;;;1.80;;
51358;SDS011;37448;51.588;7.248;2022-07-23T11:55:03;3.05;;;1.38;;
51358;SDS011;37448;51.588;7.248;2022-07-23T11:57:35;5.20;;;1.90;;
51358;SDS011;37448;51.588;7.248;2022-07-23T12:00:11;4.90;;;1.60;;
51358;SDS011;37448;51.588;7.248;2022-07-23T12:02:44;2.75;;;1.40;;
51358;SDS011;37448;51.588;7.248;2022-07-23T12:05:17;4.68;;;1.40;;
51358;SDS011;37448;51.588;7.248;2022-07-23T12:07:50;2.92;;;1.02;;
51358;SDS011;37448;51.588;7.248;2022-07-23T12:10:26;4.10;;;1.60;;
51358;SDS011;37448;51.588;7.248;2022-07-23T12:13:00;2.65;;;1.30;;
51358;SDS011;37448;51.588;7.248;2022-07-23T12:15:34;3.28;;;1.33;;
51358;SDS011;37448;51.588;7.248;2022-07-23T12:18:11;4.65;;;1.27;;
51358;SDS011;37448;51.588;7.248;2022-07-23T12:20:44;6.75;;;1.88;;
51358;SDS011;37448;51.588;7.248;2022-07-23T12:23:17;3.67;;;1.90;;
51358;SDS011;37448;51.588;7.248;2022-07-23T12:28:28;3.53;;;1.42;;
51358;SDS011;37448;51.588;7.248;2022-07-23T12:30:59;3.63;;;1.33;;
51358;SDS011;37448;51.588;7.248;2022-07-23T12:33:34;4.20;;;1.90;;
51358;SDS011;37448;51.588;7.248;2022-07-23T12:36:09;4.53;;;1.65;;
51358;SDS011;37448;51.588;7.248;2022-07-23T12:38:42;4.50;;;1.85;;
51358;SDS011;37448;51.588;7.248;2022-07-23T12:41:17;5.90;;;1.70;;
51358;SDS011;37448;51.588;7.248;2022-07-23T12:43:47;4.57;;;1.85;;
51358;SDS011;37448;51.588;7.248;2022-07-23T12:46:21;3.40;;;1.60;;
51358;SDS011;37448;51.588;7.248;2022-07-23T12:48:52;3.80;;;1.50;;
51358;SDS011;37448;51.588;7.248;2022-07-23T12:51:27;2.55;;;1.52;;
51358;SDS011;37448;51.588;7.248;2022-07-23T12:54:04;3.88;;;1.70;;
51358;SDS011;37448;51.588;7.248;2022-07-23T12:56:37;2.85;;;1.38;;
51358;SDS011;37448;51.588;7.248;2022-07-23T12:59:11;4.68;;;1.40;;
51358;SDS011;37448;51.588;7.248;2022-07-23T13:01:56;5.15;;;1.65;;
51358;SDS011;37448;51.588;7.248;2022-07-23T13:04:30;2.13;;;1.33;;
51358;SDS011;37448;51.588;7.248;2022-07-23T13:07:04;3.33;;;1.45;;
51358;SDS011;37448;51.588;7.248;2022-07-23T13:09:34;4.15;;;1.60;;
51358;SDS011;37448;51.588;7.248;2022-07-23T13:12:05;3.70;;;1.50;;
51358;SDS011;37448;51.588;7.248;2022-07-23T13:14:35;3.53;;;1.58;;
51358;SDS011;37448;51.588;7.248;2022-07-23T13:17:05;3.95;;;1.50;;
51358;SDS011;37448;51.588;7.248;2022-07-23T13:19:36;3.80;;;1.38;;
51358;SDS011;37448;51.588;7.248;2022-07-23T13:22:06;3.78;;;1.60;;
51358;SDS011;37448;51.588;7.248;2022-07-23T13:24:36;4.43;;;2.15;;
51358;SDS011;37448;51.588;7.248;2022-07-23T13:27:07;3.92;;;1.55;;
51358;SDS011;37448;51.588;7.248;2022-07-23T13:29:38;4.72;;;1.50;;
51358;SDS011;37448;51.588;7.248;2022-07-23T13:32:08;6.05;;;2.08;;
51358;SDS011;37448;51.588;7.248;2022-07-23T13:34:39;2.85;;;1.67;;
51358;SDS011;37448;51.588;7.248;2022-07-23T13:37:09;4.50;;;1.85;;
51358;SDS011;37448;51.588;7.248;2022-07-23T13:39:40;4.10;;;1.80;;
51358;SDS011;37448;51.588;7.248;2022-07-23T13:42:10;4.15;;;1.60;;
51358;SDS011;37448;51.588;7.248;2022-07-23T13:44:41;3.63;;;1.60;;
51358;SDS011;37448;51.588;7.248;2022-07-23T13:47:11;5.10;;;2.05;;
51358;SDS011;37448;51.588;7.248;2022-07-23T13:49:41;2.67;;;1.40;;
51358;SDS011;37448;51.588;7.248;2022-07-23T13:52:12;5.18;;;1.75;;
51358;SDS011;37448;51.588;7.248;2022-07-23T13:54:42;3.70;;;1.52;;
51358;SDS011;37448;51.588;7.248;2022-07-23T13:57:12;3.45;;;1.65;;
51358;SDS011;37448;51.588;7.248;2022-07-23T13:59:43;3.78;;;1.52;;
51358;SDS011;37448;51.588;7.248;2022-07-23T14:02:14;4.50;;;1.90;;
51358;SDS011;37448;51.588;7.248;2022-07-23T14:04:46;5.03;;;1.50;;
51358;SDS011;37448;51.588;7.248;2022-07-23T14:07:17;3.25;;;1.52;;
51358;SDS011;37448;51.588;7.248;2022-07-23T14:09:47;3.78;;;1.70;;
51358;SDS011;37448;51.588;7.248;2022-07-23T14:12:18;3.83;;;1.75;;
51358;SDS011;37448;51.588;7.248;2022-07-23T14:14:48;4.35;;;1.73;;
51358;SDS011;37448;51.588;7.248;2022-07-23T14:17:18;4.25;;;1.80;;
51358;SDS011;37448;51.588;7.248;2022-07-23T14:19:49;6.07;;;1.90;;
51358;SDS011;37448;51.588;7.248;2022-07-23T14:22:20;4.75;;;1.70;;
51358;SDS011;37448;51.588;7.248;2022-07-23T14:24:50;3.80;;;1.80;;
51358;SDS011;37448;51.588;7.248;2022-07-23T14:27:21;5.22;;;1.85;;
51358;SDS011;37448;51.588;7.248;2022-07-23T14:29:53;5.85;;;2.03;;
51358;SDS011;37448;51.588;7.248;2022-07-23T14:34:54;3.75;;;1.90;;
51358;SDS011;37448;51.588;7.248;2022-07-23T14:37:24;4.80;;;1.90;;
51358;SDS011;37448;51.588;7.248;2022-07-23T14:39:55;4.57;;;1.80;;
51358;SDS011;37448;51.588;7.248;2022-07-23T14:42:25;3.03;;;1.63;;
51358;SDS011;37448;51.588;7.248;2022-07-23T14:44:55;3.83;;;1.80;;
51358;SDS011;37448;51.588;7.248;2022-07-23T14:47:26;3.80;;;1.70;;
51358;SDS011;37448;51.588;7.248;2022-07-23T14:49:56;3.72;;;1.88;;
51358;SDS011;37448;51.588;7.248;2022-07-23T14:52:27;5.10;;;1.73;;
51358;SDS011;37448;51.588;7.248;2022-07-23T14:54:57;3.53;;;1.95;;
51358;SDS011;37448;51.588;7.248;2022-07-23T14:57:27;6.20;;;2.08;;
51358;SDS011;37448;51.588;7.248;2022-07-23T14:59:58;4.10;;;2.08;;
51358;SDS011;37448;51.588;7.248;2022-07-23T15:02:28;3.00;;;1.80;;
51358;SDS011;37448;51.588;7.248;2022-07-23T15:04:58;4.30;;;2.17;;
51358;SDS011;37448;51.588;7.248;2022-07-23T15:07:31;4.60;;;1.88;;
51358;SDS011;37448;51.588;7.248;2022-07-23T15:10:01;4.80;;;1.90;;
51358;SDS011;37448;51.588;7.248;2022-07-23T15:12:31;5.03;;;1.73;;
51358;SDS011;37448;51.588;7.248;2022-07-23T15:15:02;5.35;;;2.28;;
51358;SDS011;37448;51.588;7.248;2022-07-23T15:17:34;4.85;;;2.15;;
51358;SDS011;37448;51.588;7.248;2022-07-23T15:20:04;4.70;;;2.05;;
51358;SDS011;37448;51.588;7.248;2022-07-23T15:22:35;3.92;;;2.17;;
51358;SDS011;37448;51.588;7.248;2022-07-23T15:25:06;4.85;;;2.15;;
51358;SDS011;37448;51.588;7.248;2022-07-23T15:27:36;5.75;;;2.42;;
51358;SDS011;37448;51.588;7.248;2022-07-23T15:30:07;4.20;;;2.03;;
51358;SDS011;37448;51.588;7.248;2022-07-23T15:32:38;5.32;;;1.90;;
51358;SDS011;37448;51.588;7.248;2022-07-23T15:35:08;4.45;;;2.10;;
51358;SDS011;37448;51.588;7.248;2022-07-23T15:37:39;4.28;;;2.20;;
51358;SDS011;37448;51.588;7.248;2022-07-23T15:40:10;4.50;;;2.10;;
51358;SDS011;37448;51.588;7.248;2022-07-23T15:42:41;4.90;;;2.10;;
51358;SDS011;37448;51.588;7.248;2022-07-23T15:45:12;4.75;;;1.92;;
51358;SDS011;37448;51.588;7.248;2022-07-23T15:47:42;5.88;;;2.20;;
51358;SDS011;37448;51.588;7.248;2022-07-23T15:50:13;4.07;;;2.05;;
51358;SDS011;37448;51.588;7.248;2022-07-23T15:52:43;4.35;;;2.22;;